地図

経路データ

SID SEASON NUMBER BASIN SUBBASIN NAME ISO_TIME NATURE LAT LON WMO_WIND WMO_PRES WMO_AGENCY TRACK_TYPE DIST2LAND LANDFALL IFLAG USA_AGENCY USA_ATCF_ID USA_LAT USA_LON USA_RECORD USA_STATUS USA_WIND USA_PRES USA_SSHS USA_R34_NE USA_R34_SE USA_R34_SW USA_R34_NW USA_R50_NE USA_R50_SE USA_R50_SW USA_R50_NW USA_R64_NE USA_R64_SE USA_R64_SW USA_R64_NW USA_POCI USA_ROCI USA_RMW USA_EYE TOKYO_LAT TOKYO_LON TOKYO_GRADE TOKYO_WIND TOKYO_PRES TOKYO_R50_DIR TOKYO_R50_LONG TOKYO_R50_SHORT TOKYO_R30_DIR TOKYO_R30_LONG TOKYO_R30_SHORT TOKYO_LAND CMA_LAT CMA_LON CMA_CAT CMA_WIND CMA_PRES HKO_LAT HKO_LON HKO_CAT HKO_WIND HKO_PRES NEWDELHI_LAT NEWDELHI_LON NEWDELHI_GRADE NEWDELHI_WIND NEWDELHI_PRES NEWDELHI_CI NEWDELHI_DP NEWDELHI_POCI REUNION_LAT REUNION_LON REUNION_TYPE REUNION_WIND REUNION_PRES REUNION_TNUM REUNION_CI REUNION_RMW REUNION_R34_NE REUNION_R34_SE REUNION_R34_SW REUNION_R34_NW REUNION_R50_NE REUNION_R50_SE REUNION_R50_SW REUNION_R50_NW REUNION_R64_NE REUNION_R64_SE REUNION_R64_SW REUNION_R64_NW BOM_LAT BOM_LON BOM_TYPE BOM_WIND BOM_PRES BOM_TNUM BOM_CI BOM_RMW BOM_R34_NE BOM_R34_SE BOM_R34_SW BOM_R34_NW BOM_R50_NE BOM_R50_SE BOM_R50_SW BOM_R50_NW BOM_R64_NE BOM_R64_SE BOM_R64_SW BOM_R64_NW BOM_ROCI BOM_POCI BOM_EYE BOM_POS_METHOD BOM_PRES_METHOD NADI_LAT NADI_LON NADI_CAT NADI_WIND NADI_PRES WELLINGTON_LAT WELLINGTON_LON WELLINGTON_WIND WELLINGTON_PRES DS824_LAT DS824_LON DS824_STAGE DS824_WIND DS824_PRES TD9636_LAT TD9636_LON TD9636_STAGE TD9636_WIND TD9636_PRES TD9635_LAT TD9635_LON TD9635_WIND TD9635_PRES TD9635_ROCI NEUMANN_LAT NEUMANN_LON NEUMANN_CLASS NEUMANN_WIND NEUMANN_PRES MLC_LAT MLC_LON MLC_CLASS MLC_WIND MLC_PRES USA_GUST BOM_GUST BOM_GUST_PER REUNION_GUST REUNION_GUST_PER USA_SEAHGT USA_SEARAD_NE USA_SEARAD_SE USA_SEARAD_SW USA_SEARAD_NW STORM_SPEED STORM_DIR
1976210N23089 1976 80 NI BB NOT_NAMED 1976-07-28 00:00:00 TS 22.9000 89.2000 main 0 0 O________OO___ jtwc_io IO031976 22.9000 89.2000 -1 22.9000 89.2000 TC 25 22.9000 89.2000 1 9 282
1976210N23089 1976 80 NI BB NOT_NAMED 1976-07-28 03:00:00 TS 23.0017 88.6983 main 0 0 P________PP___ IO031976 23.0003 88.7026 -1 23.0003 88.7026 TC 25 23.0044 88.6898 1 9 282
1976210N23089 1976 80 NI BB NOT_NAMED 1976-07-28 06:00:00 TS 23.1021 88.1944 main 0 0 O________OP___ jtwc_io IO031976 23.1000 88.2000 -1 23.1000 88.2000 TC 25 23.1064 88.1833 1 9 282
1976210N23089 1976 80 NI BB NOT_NAMED 1976-07-28 09:00:00 TS 23.2017 87.6900 main 0 0 P________PP___ IO031976 23.1999 87.6924 -1 23.1999 87.6924 TC 25 23.2052 87.6851 1 9 282
1976210N23089 1976 80 NI BB NOT_NAMED 1976-07-28 12:00:00 TS 23.3000 87.2000 main 0 0 O________OO___ jtwc_io IO031976 23.3000 87.2000 -1 23.3000 87.2000 TC 25 23.3000 87.2000 1 9 283
1976210N23089 1976 80 NI BB NOT_NAMED 1976-07-28 15:00:00 TS 23.3970 86.7387 main 0 0 P________PP___ IO031976 23.3998 86.7424 -1 23.3998 86.7424 TC 25 23.3914 86.7312 1 9 283
1976210N23089 1976 80 NI BB NOT_NAMED 1976-07-28 18:00:00 TS 23.4948 86.2923 main 0 0 O________OP___ jtwc_io IO031976 23.5000 86.3000 -1 23.5000 86.3000 TC 25 23.4843 86.2769 1 8 283
1976210N23089 1976 80 NI BB NOT_NAMED 1976-07-28 21:00:00 TS 23.5900 85.8397 main 0 0 P________PP___ IO031976 23.5924 85.8424 -1 23.5924 85.8424 TC 25 23.5852 85.8342 1 8 284
1976210N23089 1976 80 NI BB NOT_NAMED 1976-07-29 00:00:00 TS 23.7000 85.4000 main 0 0 O________OO___ jtwc_io IO031976 23.7000 85.4000 -1 23.7000 85.4000 TC 25 23.7000 85.4000 1 8 288
1976210N23089 1976 80 NI BB NOT_NAMED 1976-07-29 03:00:00 TS 23.8313 85.0090 main 0 0 P________PP___ IO031976 23.8423 84.9999 -1 23.8423 84.9999 TC 25 23.8094 85.0271 1 8 291
1976210N23089 1976 80 NI BB NOT_NAMED 1976-07-29 06:00:00 TS 23.9790 84.6174 main 0 0 O________OP___ jtwc_io IO031976 24.0000 84.6000 -1 24.0000 84.6000 TC 25 23.9370 84.6523 1 8 291
1976210N23089 1976 80 NI BB NOT_NAMED 1976-07-29 09:00:00 TS 24.1168 84.2051 main 0 0 P________PP___ IO031976 24.1270 84.1944 -1 24.1270 84.1944 TC 25 24.0963 84.2265 1 9 291
1976210N23089 1976 80 NI BB NOT_NAMED 1976-07-29 12:00:00 TS 24.3000 83.7000 main 0 0 O________OO___ jtwc_io IO031976 24.3000 83.7000 -1 24.3000 83.7000 TC 25 24.3000 83.7000 1 12 294
1976210N23089 1976 80 NI BB NOT_NAMED 1976-07-29 15:00:00 TS 24.5855 83.0525 main 0 0 P________PP___ IO031976 24.5772 83.0674 -1 24.5772 83.0674 TC 25 24.6021 83.0227 1 14 295
1976210N23089 1976 80 NI BB NOT_NAMED 1976-07-29 18:00:00 TS 24.9127 82.2797 main 0 0 O________OP___ jtwc_io IO031976 24.9000 82.3000 -1 24.9000 82.3000 TC 25 24.9380 82.2391 1 16 294
1976210N23089 1976 80 NI BB NOT_NAMED 1976-07-29 21:00:00 TS 25.2431 81.4205 main 0 0 P________PP___ IO031976 25.2373 81.4381 -1 25.2373 81.4381 TC 25 25.2548 81.3854 1 17 290
1976210N23089 1976 80 NI BB NOT_NAMED 1976-07-30 00:00:00 TS 25.5000 80.5000 main 0 0 O________OO___ jtwc_io IO031976 25.5000 80.5000 -1 25.5000 80.5000 TC 25 25.5000 80.5000 1 17 281
1976210N23089 1976 80 NI BB NOT_NAMED 1976-07-30 03:00:00 TS 25.5863 79.5461 main 0 0 P________PP___ IO031976 25.5949 79.5343 -1 25.5949 79.5343 TC 25 25.5691 79.5698 1 17 273
1976210N23089 1976 80 NI BB NOT_NAMED 1976-07-30 06:00:00 TS 25.5892 78.6108 main 0 0 O________OP___ jtwc_io IO031976 25.6000 78.6000 -1 25.6000 78.6000 TC 25 25.5676 78.6326 1 16 269
1976210N23089 1976 80 NI AS NOT_NAMED 1976-07-30 09:00:00 TS 25.5705 77.7395 main 0 0 P________PP___ IO031976 25.5773 77.7319 -1 25.5773 77.7319 TC 25 25.5569 77.7545 1 15 270
1976210N23089 1976 80 NI AS NOT_NAMED 1976-07-30 12:00:00 TS 25.6000 77.0000 main 0 0 O________OO___ jtwc_io IO031976 25.6000 77.0000 -1 25.6000 77.0000 TC 25 25.6000 77.0000 1 12 279
1976210N23089 1976 80 NI AS NOT_NAMED 1976-07-30 15:00:00 TS 25.7543 76.4342 main 0 0 P________PP___ IO031976 25.7545 76.4326 -1 25.7545 76.4326 TC 25 25.7540 76.4375 1 10 294
1976210N23089 1976 80 NI AS NOT_NAMED 1976-07-30 18:00:00 TS 25.9922 75.9998 main 0 0 O________OP___ jtwc_io IO031976 26.0000 76.0000 -1 26.0000 76.0000 TC 25 25.9765 75.9995 1 9 306
1976210N23089 1976 80 NI AS NOT_NAMED 1976-07-30 21:00:00 TS 26.2668 75.6354 main 0 0 P________PP___ IO031976 26.2697 75.6346 -1 26.2697 75.6346 TC 25 26.2610 75.6368 1 9 314
1976210N23089 1976 80 NI AS NOT_NAMED 1976-07-31 00:00:00 TS 26.6000 75.3000 main 0 0 O________OO___ jtwc_io IO031976 26.6000 75.3000 -1 26.6000 75.3000 TC 25 26.6000 75.3000 1 10 317
1976210N23089 1976 80 NI AS NOT_NAMED 1976-07-31 03:00:00 TS 26.9793 74.8943 main 0 0 P________PP___ IO031976 26.9775 74.8999 -1 26.9775 74.8999 TC 25 26.9828 74.8830 1 11 318
1976210N23089 1976 80 NI AS NOT_NAMED 1976-07-31 06:00:00 TS 27.4042 74.4945 main 0 0 O________OP___ jtwc_io IO031976 27.4000 74.5000 -1 27.4000 74.5000 TC 25 27.4126 74.4837 1 11 322
1976210N23089 1976 80 NI AS NOT_NAMED 1976-07-31 09:00:00 TS 27.8536 74.1241 main 0 0 P________PP___ IO031976 27.8499 74.1275 -1 27.8499 74.1275 TC 25 27.8610 74.1173 1 11 326
1976210N23089 1976 80 NI AS NOT_NAMED 1976-07-31 12:00:00 TS 28.3000 73.8000 main 0 0 O________OO___ jtwc_io IO031976 28.3000 73.8000 -1 28.3000 73.8000 TC 25 28.3000 73.8000 1 10 328
1976210N23089 1976 80 NI AS NOT_NAMED 1976-07-31 15:00:00 TS 28.7143 73.5254 main 0 0 P________PP___ IO031976 28.7149 73.5198 -1 28.7149 73.5198 TC 25 28.7132 73.5366 1 9 332
1976210N23089 1976 80 NI AS NOT_NAMED 1976-07-31 18:00:00 TS 29.1031 73.3080 main 0 0 O________OP___ jtwc_io IO031976 29.1000 73.3000 -1 29.1000 73.3000 TC 25 29.1094 73.3240 1 8 336
1976210N23089 1976 80 NI AS NOT_NAMED 1976-07-31 21:00:00 TS 29.4736 73.1396 main 0 0 P________PP___ IO031976 29.4724 73.1348 -1 29.4724 73.1348 TC 25 29.4759 73.1494 1 7 339
1976210N23089 1976 80 NI AS NOT_NAMED 1976-08-01 00:00:00 TS 29.8000 73.0000 main 0 0 O________OO___ jtwc_io IO031976 29.8000 73.0000 -1 29.8000 73.0000 TC 25 29.8000 73.0000 1 7 337
1976210N23089 1976 80 NI AS NOT_NAMED 1976-08-01 03:00:00 TS 30.0728 72.8498 main 0 0 P________PP___ IO031976 30.0725 72.8424 -1 30.0725 72.8424 TC 25 30.0733 72.8644 1 6 333
1976210N23089 1976 80 NI AS NOT_NAMED 1976-08-01 06:00:00 TS 30.3018 72.7127 main 0 0 O________OP___ jtwc_io IO031976 30.3000 72.7000 -1 30.3000 72.7000 TC 25 30.3053 72.7380 1 5 334
1976210N23089 1976 80 NI AS NOT_NAMED 1976-08-01 09:00:00 TS 30.5065 72.5992 main 0 0 P________PP___ IO031976 30.5050 72.5900 -1 30.5050 72.5900 TC 25 30.5096 72.6176 1 4 336
1976210N23089 1976 80 NI AS NOT_NAMED 1976-08-01 12:00:00 TS 30.7000 72.5000 main 0 O________OO___ jtwc_io IO031976 30.7000 72.5000 -1 30.7000 72.5000 TC 25 30.7000 72.5000 6 4 335

IBTrACS Databaseについて

本データベースは、米国NOAAが公開する1842年以降の世界の熱帯低気圧のベストトラックデータアーカイブInternational Best Track Archive for Climate Stewardship (IBTrACS)を、ウェブで閲覧しやすい形式に変換したものです。

最終更新日:2021-11-26